ADDS TAF Board (Experimental) INFO Settings

IDs: Format: Expanded Condensed

KBOS - Boston/Logan Intl, MA, US

Issued at 0538 UTC 19 Apr 2015
Updated at: 0755 UTC 19 Apr 2015
Time0654Z 19/08Z 19/09Z 19/10Z 19/11Z 19/12Z 19/13Z 19/14Z 19/15Z 19/16Z 19/17Z 19/18Z 19/19Z 19/20Z
Type OBS PRVL PRVL PRVL PRVL PRVL PRVL PRVL PRVL PRVL PRVL PRVL PRVL PRVL
VIS 10 >6 >6 >6 >6 >6 >6 >6 >6 >6 >6 >6 >6 >6
CIG -- -- -- -- -- -- -- -- -- -- -- -- -- --
Cover CLR FEW FEW FEW FEW SKC SKC FEW FEW FEW FEW FEW FEW FEW
FltCat VFR VFR VFR VFR VFR VFR VFR VFR VFR VFR VFR VFR VFR VFR
WX -- -- -- -- -- -- -- -- -- -- -- -- -- --
WDir 330 360 360 360 360 10 10 40 40 40 100 100 100 100
WSpd 15 8 8 8 8 10 10 9 9 9 9 9 9 9
WGst 21 -- -- -- -- 20 20 -- -- -- -- -- -- --
R04/22
XWnd 11 3 3 3 3 2 2 -3 -3 -3 -9 -9 -9 -9
XGst 16 -- -- -- -- 3 3 -- -- -- -- -- -- --
HWnd 10 8 8 8 8 10 10 8 8 8 2 2 2 2
HGst 13 -- -- -- -- 20 20 -- -- -- -- -- -- --
R09/27
XWnd 14 8 8 8 8 9 9 5 5 5 -4 -4 -4 -4
XGst 20 -- -- -- -- 18 18 -- -- -- -- -- -- --
HWnd -4 2 2 2 2 4 4 7 7 7 8 8 8 8
HGst -6 -- -- -- -- 8 8 -- -- -- -- -- -- --
R14/32
XWnd 6 7 7 7 7 9 9 9 9 9 4 4 4 4
XGst 9 -- -- -- -- 18 18 -- -- -- -- -- -- --
HWnd -14 -5 -5 -5 -5 -4 -4 1 1 1 8 8 8 8
HGst -19 -- -- -- -- -8 -8 -- -- -- -- -- -- --
R15/33
XWnd 4 6 6 6 6 8 8 9 9 9 5 5 5 5
XGst 5 -- -- -- -- 16 16 -- -- -- -- -- -- --
HWnd -14 -6 -6 -6 -6 -6 -6 -1 -1 -1 7 7 7 7
HGst -20 -- -- -- -- -11 -11 -- -- -- -- -- -- --

NOTE: TEMPO conditions in [brackets]. Keep in mind TEMPO conditions might be better (lower impact) than prevailing conditions.

Raw TAF
KBOS 190538Z 1906/2012 36008KT P6SM FEW250
  FM191200 01010G20KT P6SM SKC
  FM191400 04009KT P6SM FEW250
  FM191700 10009KT P6SM FEW250
  FM200100 14008KT P6SM FEW250


Raw METAR
KBOS 190654Z 33015G21KT 10SM CLR 08/00 A3012 RMK AO2 SLP199 T00780000
KBOS 190554Z 33013G19KT 10SM CLR 08/01 A3011 RMK AO2 SLP196 T00830011 10083 20061 51018
KBOS 190454Z 35003KT 10SM CLR 07/03 A3010 RMK AO2 SLP190 T00720033 401560061

METAR Board
Radar Display
Forecast Discussion

TAF Board Legend

Potential Impact
Threat None Slight Moderate High
Visibility (sm) ≥5.1 5.1>X≥3 3>X≥1 <1
Ceiling (100 ft) ≥30.1 30.1>X≥10 10>X≥5 <5
Wind Speed (kt) <10 10≤X<20 20≤X<30 ≥30
Wind Gust (kt) <15 15≤X<25 25≤X<35 ≥35
Weather No Wx Reported VCTS,-TS,-FZRA,SN TS,FZRA +TS,+FZRA,+SN